createdAt,value
2023-04-01T00:00:15.219Z,100.00
2023-04-01T00:05:41.103Z,100.00
2023-04-01T00:10:46.938Z,100.00
2023-04-01T00:15:52.962Z,100.00
2023-04-01T00:20:58.939Z,100.00
2023-04-01T00:26:06.473Z,100.00
2023-04-01T00:31:13.112Z,100.00
2023-04-01T00:36:22.494Z,100.00
2023-04-01T00:41:29.054Z,100.00
2023-04-01T00:46:36.843Z,100.00
2023-04-01T00:51:43.989Z,100.00
2023-04-01T00:56:56.815Z,100.00
2023-04-01T01:02:03.878Z,100.00
2023-04-01T01:07:21.561Z,100.00
2023-04-01T01:12:32.652Z,100.00
2023-04-01T01:17:42.022Z,100.00
2023-04-01T01:23:08.327Z,100.00
2023-04-01T01:28:32.729Z,100.00
2023-04-01T01:33:48.713Z,100.00
2023-04-01T01:38:55.660Z,100.00
2023-04-01T01:44:03.900Z,100.00
2023-04-01T01:49:11.500Z,100.00
2023-04-01T01:54:18.281Z,100.00
2023-04-01T01:59:28.252Z,100.00
2023-04-01T02:04:35.263Z,100.00
2023-04-01T02:09:41.100Z,100.00
2023-04-01T02:14:53.290Z,100.00
2023-04-01T02:20:01.035Z,100.00
2023-04-01T02:25:10.620Z,100.00
2023-04-01T02:30:17.521Z,100.00
2023-04-01T02:35:23.446Z,100.00
2023-04-01T02:40:29.014Z,100.00
2023-04-01T02:45:34.773Z,100.00
2023-04-01T02:50:40.707Z,100.00
2023-04-01T02:55:46.319Z,100.00
2023-04-01T03:00:51.925Z,100.00
2023-04-01T03:05:59.623Z,100.00
2023-04-01T03:11:05.177Z,100.00
2023-04-01T03:16:11.702Z,100.00
2023-04-01T03:21:19.680Z,100.00
2023-04-01T03:26:27.736Z,100.00
2023-04-01T03:31:33.666Z,100.00
2023-04-01T03:36:39.542Z,100.00
2023-04-01T03:41:45.360Z,100.00
2023-04-01T03:46:51.120Z,100.00
2023-04-01T03:51:57.090Z,100.00
2023-04-01T03:57:02.590Z,100.00
2023-04-01T04:02:08.507Z,100.00
2023-04-01T04:07:14.762Z,100.00
2023-04-01T04:12:41.481Z,100.00
2023-04-01T04:17:48.518Z,100.00
2023-04-01T04:22:54.418Z,100.00
2023-04-01T04:27:59.988Z,100.00
2023-04-01T04:33:06.297Z,100.00
2023-04-01T04:38:12.140Z,100.00
2023-04-01T04:43:19.125Z,100.00
2023-04-01T04:48:24.909Z,100.00
2023-04-01T04:53:30.370Z,100.00
2023-04-01T04:58:36.265Z,100.00
2023-04-01T05:03:42.580Z,100.00
2023-04-01T05:08:48.321Z,100.00
2023-04-01T05:13:54.056Z,100.00
2023-04-01T05:18:59.762Z,100.00
2023-04-01T05:24:08.220Z,100.00
2023-04-01T05:29:14.511Z,100.00
2023-04-01T05:34:21.278Z,100.00
2023-04-01T05:39:27.453Z,100.00
2023-04-01T05:44:33.110Z,100.00
2023-04-01T05:49:41.197Z,100.00
2023-04-01T05:54:47.416Z,100.00
2023-04-01T05:59:52.929Z,100.00
2023-04-01T06:05:12.933Z,100.00
2023-04-01T06:10:21.012Z,100.00
2023-04-01T06:15:37.660Z,100.00
2023-04-01T06:20:50.828Z,100.00
2023-04-01T06:26:15.683Z,100.00
2023-04-01T06:31:35.773Z,100.00
2023-04-01T06:36:58.775Z,100.00
2023-04-01T06:42:35.423Z,94.22
2023-04-01T06:47:57.789Z,91.28
2023-04-01T06:53:33.539Z,90.52
2023-04-01T06:59:01.158Z,92.95
2023-04-01T07:04:13.559Z,93.86
2023-04-01T07:09:23.958Z,94.20
2023-04-01T07:14:57.197Z,92.29
2023-04-01T07:20:06.629Z,89.71
2023-04-01T07:25:17.792Z,88.81
2023-04-01T07:30:34.015Z,86.80
2023-04-01T07:35:47.133Z,85.20
2023-04-01T07:41:04.900Z,85.67
2023-04-01T07:46:22.794Z,85.06
2023-04-01T07:51:36.821Z,84.84
2023-04-01T07:56:48.310Z,84.61
2023-04-01T08:02:08.687Z,84.79
2023-04-01T08:07:19.798Z,84.89
2023-04-01T08:12:56.892Z,85.17
2023-04-01T08:18:42.605Z,85.39
2023-04-01T08:23:53.337Z,85.94
2023-04-01T08:29:04.107Z,85.96
2023-04-01T08:34:19.524Z,86.15
2023-04-01T08:39:33.898Z,85.30
2023-04-01T08:45:08.325Z,85.45
2023-04-01T08:50:35.192Z,85.04
2023-04-01T08:56:07.522Z,85.27
2023-04-01T09:01:26.016Z,85.05
2023-04-01T09:07:00.429Z,81.78
2023-04-01T09:12:32.974Z,80.81
2023-04-01T09:17:55.726Z,79.25
2023-04-01T09:23:16.981Z,78.04
2023-04-01T09:28:35.918Z,77.59
2023-04-01T09:34:09.874Z,78.44
2023-04-01T09:39:38.675Z,78.82
2023-04-01T09:44:49.763Z,80.00
2023-04-01T09:50:18.209Z,81.72
2023-04-01T09:55:57.245Z,82.29
2023-04-01T10:01:29.304Z,83.26
2023-04-01T10:07:05.441Z,83.05
2023-04-01T10:12:47.131Z,83.75
2023-04-01T10:18:21.667Z,83.69
2023-04-01T10:24:01.635Z,83.91
2023-04-01T10:29:41.269Z,83.30
2023-04-01T10:35:08.316Z,83.15
2023-04-01T10:41:00.389Z,83.63
2023-04-01T10:46:59.286Z,84.21
2023-04-01T10:52:54.975Z,83.67
2023-04-01T10:58:45.831Z,79.94
2023-04-01T11:04:52.604Z,73.76
2023-04-01T11:10:45.955Z,68.47
2023-04-01T11:16:21.473Z,67.55
2023-04-01T11:22:00.837Z,67.00
2023-04-01T11:27:32.048Z,66.22
2023-04-01T11:32:50.163Z,68.26
2023-04-01T11:38:05.834Z,70.09
2023-04-01T11:43:38.644Z,74.21
2023-04-01T11:49:29.372Z,77.32
2023-04-01T11:55:17.286Z,79.55
2023-04-01T12:01:05.967Z,82.67
2023-04-01T12:06:21.017Z,85.57
2023-04-01T12:11:39.389Z,87.84
2023-04-01T12:17:01.318Z,89.20
2023-04-01T12:22:35.790Z,86.49
2023-04-01T12:27:54.800Z,84.23
2023-04-01T12:33:17.171Z,79.08
2023-04-01T12:38:32.731Z,75.28
2023-04-01T12:44:07.585Z,73.49
2023-04-01T12:49:49.955Z,75.19
2023-04-01T12:55:32.802Z,74.31
2023-04-01T13:01:17.286Z,72.94
2023-04-01T13:06:42.907Z,73.13
2023-04-01T13:12:02.134Z,74.20
2023-04-01T13:17:19.173Z,75.06
2023-04-01T13:22:48.367Z,76.15
2023-04-01T13:28:05.462Z,78.07
2023-04-01T13:33:18.496Z,79.01
2023-04-01T13:39:06.337Z,80.61
2023-04-01T13:44:18.985Z,82.09
2023-04-01T13:49:49.481Z,82.09
2023-04-01T13:55:07.862Z,83.11
2023-04-01T14:00:42.558Z,84.08
2023-04-01T14:06:11.186Z,85.76
2023-04-01T14:11:28.459Z,87.25
2023-04-01T14:17:03.298Z,88.48
2023-04-01T14:22:24.564Z,89.09
2023-04-01T14:27:48.445Z,89.34
2023-04-01T14:33:01.373Z,88.47
2023-04-01T14:38:26.210Z,88.76
2023-04-01T14:44:01.020Z,90.27
2023-04-01T14:49:16.328Z,92.07
2023-04-01T14:54:31.253Z,93.45
2023-04-01T14:59:48.796Z,93.48
2023-04-01T15:04:59.793Z,95.14
2023-04-01T15:10:10.834Z,95.67
2023-04-01T15:15:32.530Z,96.28
2023-04-01T15:21:01.253Z,97.37
2023-04-01T15:26:22.961Z,98.21
2023-04-01T15:31:33.041Z,98.26
2023-04-01T15:36:45.739Z,98.55
2023-04-01T15:42:06.944Z,98.89
2023-04-01T15:47:35.329Z,99.33
2023-04-01T15:52:52.163Z,99.21
2023-04-01T15:58:18.046Z,99.41
2023-04-01T16:03:38.005Z,98.98
2023-04-01T16:09:17.699Z,98.74
2023-04-01T16:14:42.527Z,99.02
2023-04-01T16:19:55.592Z,99.82
2023-04-01T16:25:20.927Z,100.00
2023-04-01T16:30:35.933Z,100.00
2023-04-01T16:35:48.785Z,100.00
2023-04-01T16:41:08.369Z,100.00
2023-04-01T16:46:36.484Z,100.00
2023-04-01T16:51:48.650Z,100.00
2023-04-01T16:57:02.908Z,100.00
2023-04-01T17:02:14.873Z,100.00
2023-04-01T17:07:37.950Z,100.00
2023-04-01T17:12:54.691Z,100.00
2023-04-01T17:18:10.840Z,100.00
2023-04-01T17:23:24.387Z,100.00
2023-04-01T17:28:41.693Z,100.00
2023-04-01T17:34:05.129Z,100.00
2023-04-01T17:39:37.325Z,100.00
2023-04-01T17:44:54.149Z,100.00
2023-04-01T17:50:11.381Z,100.00
2023-04-01T17:55:51.842Z,100.00
2023-04-01T18:01:10.364Z,100.00
2023-04-01T18:06:21.078Z,100.00
2023-04-01T18:11:40.464Z,100.00
2023-04-01T18:17:01.136Z,100.00
2023-04-01T18:22:19.974Z,100.00
2023-04-01T18:27:30.673Z,100.00
2023-04-01T18:32:46.428Z,100.00
2023-04-01T18:37:58.631Z,100.00
2023-04-01T18:43:14.045Z,100.00
2023-04-01T18:48:40.728Z,100.00
2023-04-01T18:53:53.786Z,100.00
2023-04-01T18:59:07.871Z,100.00
2023-04-01T19:04:24.736Z,100.00
2023-04-01T19:09:43.822Z,100.00
2023-04-01T19:15:00.716Z,100.00
2023-04-01T19:20:17.457Z,100.00
2023-04-01T19:25:32.489Z,100.00
2023-04-01T19:30:54.006Z,100.00
2023-04-01T19:36:10.424Z,100.00
2023-04-01T19:41:31.168Z,100.00
2023-04-01T19:46:44.080Z,100.00
2023-04-01T19:51:54.895Z,100.00
2023-04-01T19:57:14.098Z,100.00
2023-04-01T20:02:39.380Z,100.00
2023-04-01T20:07:53.007Z,100.00
2023-04-01T20:13:06.784Z,100.00
2023-04-01T20:18:20.912Z,100.00
2023-04-01T20:23:44.936Z,100.00
2023-04-01T20:29:08.754Z,100.00
2023-04-01T20:34:37.029Z,100.00
2023-04-01T20:40:19.213Z,100.00
2023-04-01T20:45:35.042Z,100.00
2023-04-01T20:50:50.148Z,100.00
2023-04-01T20:56:08.909Z,100.00
2023-04-01T21:01:27.450Z,100.00
2023-04-01T21:06:49.822Z,100.00
2023-04-01T21:12:03.436Z,100.00
2023-04-01T21:17:18.835Z,100.00
2023-04-01T21:22:51.656Z,100.00
2023-04-01T21:28:18.159Z,100.00
2023-04-01T21:33:40.542Z,100.00
2023-04-01T21:38:59.990Z,100.00
2023-04-01T21:44:27.428Z,100.00
2023-04-01T21:49:51.493Z,100.00
2023-04-01T21:55:33.341Z,100.00
2023-04-01T22:00:43.990Z,100.00
2023-04-01T22:05:56.410Z,100.00
2023-04-01T22:11:09.728Z,100.00
2023-04-01T22:16:22.624Z,100.00
2023-04-01T22:21:39.339Z,100.00
2023-04-01T22:26:51.949Z,100.00
2023-04-01T22:32:03.779Z,99.91
2023-04-01T22:37:19.024Z,99.26
2023-04-01T22:42:39.249Z,99.25
2023-04-01T22:47:58.408Z,99.20
2023-04-01T22:53:19.167Z,98.31
2023-04-01T22:58:32.395Z,98.18
2023-04-01T23:03:42.210Z,98.22
2023-04-01T23:09:07.496Z,98.24
2023-04-01T23:14:38.165Z,98.15
2023-04-01T23:19:53.201Z,98.19
2023-04-01T23:25:09.847Z,98.07
2023-04-01T23:30:55.304Z,98.10
2023-04-01T23:36:06.409Z,98.14
2023-04-01T23:41:19.013Z,98.05
2023-04-01T23:46:26.222Z,97.90
2023-04-01T23:51:40.547Z,97.87
2023-04-01T23:56:49.933Z,97.98
